sensor_id;sensor_type;location;lat;lon;timestamp;temperature;humidity
1978;DHT22;989;53.016;8.346;2023-01-09T00:01:42;6.50;99.90
1978;DHT22;989;53.016;8.346;2023-01-09T00:04:10;6.50;99.90
1978;DHT22;989;53.016;8.346;2023-01-09T00:06:36;6.50;99.90
1978;DHT22;989;53.016;8.346;2023-01-09T00:09:04;6.60;99.90
1978;DHT22;989;53.016;8.346;2023-01-09T00:11:30;6.60;99.90
1978;DHT22;989;53.016;8.346;2023-01-09T00:13:56;6.70;99.90
1978;DHT22;989;53.016;8.346;2023-01-09T00:16:22;6.70;99.90
1978;DHT22;989;53.016;8.346;2023-01-09T00:18:48;6.80;99.90
1978;DHT22;989;53.016;8.346;2023-01-09T00:21:14;6.80;99.90
1978;DHT22;989;53.016;8.346;2023-01-09T00:23:39;6.90;99.90
1978;DHT22;989;53.016;8.346;2023-01-09T00:26:14;6.90;99.90
1978;DHT22;989;53.016;8.346;2023-01-09T00:28:45;7.00;99.90
1978;DHT22;989;53.016;8.346;2023-01-09T00:31:11;7.10;99.90
1978;DHT22;989;53.016;8.346;2023-01-09T00:33:44;7.20;99.90
1978;DHT22;989;53.016;8.346;2023-01-09T00:36:11;7.20;99.90
1978;DHT22;989;53.016;8.346;2023-01-09T00:38:37;7.30;99.90
1978;DHT22;989;53.016;8.346;2023-01-09T00:41:05;7.30;99.90
1978;DHT22;989;53.016;8.346;2023-01-09T00:43:34;7.30;99.90
1978;DHT22;989;53.016;8.346;2023-01-09T00:46:07;7.40;99.90
1978;DHT22;989;53.016;8.346;2023-01-09T00:48:34;7.40;99.90
1978;DHT22;989;53.016;8.346;2023-01-09T00:51:02;7.40;99.90
1978;DHT22;989;53.016;8.346;2023-01-09T00:53:31;7.40;99.90
1978;DHT22;989;53.016;8.346;2023-01-09T00:55:59;7.50;99.90
1978;DHT22;989;53.016;8.346;2023-01-09T00:58:26;7.50;99.90
1978;DHT22;989;53.016;8.346;2023-01-09T01:00:52;7.50;99.80
1978;DHT22;989;53.016;8.346;2023-01-09T01:03:17;7.50;99.90
1978;DHT22;989;53.016;8.346;2023-01-09T01:05:43;7.60;99.60
1978;DHT22;989;53.016;8.346;2023-01-09T01:08:27;7.60;99.90
1978;DHT22;989;53.016;8.346;2023-01-09T01:10:53;7.60;99.90
1978;DHT22;989;53.016;8.346;2023-01-09T01:13:18;7.60;98.90
1978;DHT22;989;53.016;8.346;2023-01-09T01:15:45;7.60;99.90
1978;DHT22;989;53.016;8.346;2023-01-09T01:18:12;7.60;99.90
1978;DHT22;989;53.016;8.346;2023-01-09T01:20:42;7.60;99.90
1978;DHT22;989;53.016;8.346;2023-01-09T01:23:08;7.60;99.90
1978;DHT22;989;53.016;8.346;2023-01-09T01:25:36;7.60;99.90
1978;DHT22;989;53.016;8.346;2023-01-09T01:28:04;7.60;99.90
1978;DHT22;989;53.016;8.346;2023-01-09T01:30:30;7.60;99.90
1978;DHT22;989;53.016;8.346;2023-01-09T01:32:56;7.60;99.90
1978;DHT22;989;53.016;8.346;2023-01-09T01:35:22;7.60;99.90
1978;DHT22;989;53.016;8.346;2023-01-09T01:37:47;7.60;99.90
1978;DHT22;989;53.016;8.346;2023-01-09T01:40:14;7.60;99.90
1978;DHT22;989;53.016;8.346;2023-01-09T01:42:48;7.50;99.90
1978;DHT22;989;53.016;8.346;2023-01-09T01:45:18;7.50;99.90
1978;DHT22;989;53.016;8.346;2023-01-09T01:47:56;7.50;99.90
1978;DHT22;989;53.016;8.346;2023-01-09T01:50:37;7.60;99.90
1978;DHT22;989;53.016;8.346;2023-01-09T01:53:27;7.60;99.90
1978;DHT22;989;53.016;8.346;2023-01-09T01:59:08;7.70;99.90
1978;DHT22;989;53.016;8.346;2023-01-09T02:01:38;7.60;99.90
1978;DHT22;989;53.016;8.346;2023-01-09T02:04:06;7.70;99.90
1978;DHT22;989;53.016;8.346;2023-01-09T02:06:33;7.70;99.90
1978;DHT22;989;53.016;8.346;2023-01-09T02:09:01;7.70;99.90
1978;DHT22;989;53.016;8.346;2023-01-09T02:11:28;7.70;99.90
1978;DHT22;989;53.016;8.346;2023-01-09T02:13:54;7.70;99.90
1978;DHT22;989;53.016;8.346;2023-01-09T02:28:34;7.80;99.90
1978;DHT22;989;53.016;8.346;2023-01-09T02:41:12;7.80;99.90
1978;DHT22;989;53.016;8.346;2023-01-09T02:43:41;7.90;99.90
1978;DHT22;989;53.016;8.346;2023-01-09T02:46:17;7.90;99.90
1978;DHT22;989;53.016;8.346;2023-01-09T02:48:44;7.90;99.90
1978;DHT22;989;53.016;8.346;2023-01-09T02:51:23;7.90;99.90
1978;DHT22;989;53.016;8.346;2023-01-09T02:54:10;7.90;99.90
1978;DHT22;989;53.016;8.346;2023-01-09T03:00:04;8.00;99.90
1978;DHT22;989;53.016;8.346;2023-01-09T03:02:44;8.00;99.90
1978;DHT22;989;53.016;8.346;2023-01-09T03:05:30;8.00;99.90
1978;DHT22;989;53.016;8.346;2023-01-09T03:08:36;8.00;99.90
1978;DHT22;989;53.016;8.346;2023-01-09T03:11:06;8.00;99.90
1978;DHT22;989;53.016;8.346;2023-01-09T03:13:49;8.00;99.90
1978;DHT22;989;53.016;8.346;2023-01-09T03:16:20;8.00;99.90
1978;DHT22;989;53.016;8.346;2023-01-09T03:18:49;8.00;99.90
1978;DHT22;989;53.016;8.346;2023-01-09T03:21:16;8.00;99.90
1978;DHT22;989;53.016;8.346;2023-01-09T03:23:51;8.00;99.90
1978;DHT22;989;53.016;8.346;2023-01-09T03:26:22;8.10;99.90
1978;DHT22;989;53.016;8.346;2023-01-09T03:28:49;8.00;99.90
1978;DHT22;989;53.016;8.346;2023-01-09T03:31:15;8.00;99.90
1978;DHT22;989;53.016;8.346;2023-01-09T03:33:41;8.10;99.90
1978;DHT22;989;53.016;8.346;2023-01-09T03:36:08;8.10;99.90
1978;DHT22;989;53.016;8.346;2023-01-09T03:38:36;8.10;99.90
1978;DHT22;989;53.016;8.346;2023-01-09T03:41:02;8.10;99.90
1978;DHT22;989;53.016;8.346;2023-01-09T03:43:28;8.10;99.90
1978;DHT22;989;53.016;8.346;2023-01-09T03:45:54;8.00;99.90
1978;DHT22;989;53.016;8.346;2023-01-09T03:48:20;8.10;99.90
1978;DHT22;989;53.016;8.346;2023-01-09T03:50:50;8.00;99.90
1978;DHT22;989;53.016;8.346;2023-01-09T03:53:17;8.00;99.90
1978;DHT22;989;53.016;8.346;2023-01-09T03:55:52;7.90;99.90
1978;DHT22;989;53.016;8.346;2023-01-09T03:58:19;7.90;99.90
1978;DHT22;989;53.016;8.346;2023-01-09T04:00:45;7.80;99.90
1978;DHT22;989;53.016;8.346;2023-01-09T04:03:14;7.80;99.90
1978;DHT22;989;53.016;8.346;2023-01-09T04:05:40;7.80;99.90
1978;DHT22;989;53.016;8.346;2023-01-09T04:08:08;7.80;99.90
1978;DHT22;989;53.016;8.346;2023-01-09T04:10:33;7.70;99.90
1978;DHT22;989;53.016;8.346;2023-01-09T04:12:59;7.70;99.90
1978;DHT22;989;53.016;8.346;2023-01-09T04:15:24;7.70;99.90
1978;DHT22;989;53.016;8.346;2023-01-09T04:17:50;7.70;99.90
1978;DHT22;989;53.016;8.346;2023-01-09T04:20:16;7.60;99.90
1978;DHT22;989;53.016;8.346;2023-01-09T04:22:43;7.60;99.90
1978;DHT22;989;53.016;8.346;2023-01-09T04:25:09;7.60;99.90
1978;DHT22;989;53.016;8.346;2023-01-09T04:27:36;7.50;99.90
1978;DHT22;989;53.016;8.346;2023-01-09T04:30:02;7.60;99.90
1978;DHT22;989;53.016;8.346;2023-01-09T04:32:28;7.60;99.90
1978;DHT22;989;53.016;8.346;2023-01-09T04:34:53;7.60;99.90
1978;DHT22;989;53.016;8.346;2023-01-09T04:37:20;7.60;99.90
1978;DHT22;989;53.016;8.346;2023-01-09T04:39:46;7.60;99.90
1978;DHT22;989;53.016;8.346;2023-01-09T04:42:12;7.60;99.90
1978;DHT22;989;53.016;8.346;2023-01-09T04:44:38;7.50;99.90
1978;DHT22;989;53.016;8.346;2023-01-09T04:47:03;7.40;99.90
1978;DHT22;989;53.016;8.346;2023-01-09T04:49:29;7.30;99.90
1978;DHT22;989;53.016;8.346;2023-01-09T04:51:55;7.30;99.90
1978;DHT22;989;53.016;8.346;2023-01-09T04:54:20;7.20;99.90
1978;DHT22;989;53.016;8.346;2023-01-09T04:56:46;7.20;99.90
1978;DHT22;989;53.016;8.346;2023-01-09T04:59:12;7.20;99.90
1978;DHT22;989;53.016;8.346;2023-01-09T05:01:38;7.10;99.90
1978;DHT22;989;53.016;8.346;2023-01-09T05:04:04;7.10;99.90
1978;DHT22;989;53.016;8.346;2023-01-09T05:06:30;7.00;99.90
1978;DHT22;989;53.016;8.346;2023-01-09T05:08:56;7.00;99.90
1978;DHT22;989;53.016;8.346;2023-01-09T05:11:23;7.00;99.90
1978;DHT22;989;53.016;8.346;2023-01-09T05:13:50;7.00;99.90
1978;DHT22;989;53.016;8.346;2023-01-09T05:16:16;6.90;99.90
1978;DHT22;989;53.016;8.346;2023-01-09T05:18:42;6.90;99.90
1978;DHT22;989;53.016;8.346;2023-01-09T05:21:07;7.00;99.90
1978;DHT22;989;53.016;8.346;2023-01-09T05:23:33;6.90;99.90
1978;DHT22;989;53.016;8.346;2023-01-09T05:25:59;6.80;99.90
1978;DHT22;989;53.016;8.346;2023-01-09T05:28:24;6.70;99.90
1978;DHT22;989;53.016;8.346;2023-01-09T05:30:50;6.70;99.90
1978;DHT22;989;53.016;8.346;2023-01-09T05:33:15;6.70;99.90
1978;DHT22;989;53.016;8.346;2023-01-09T05:35:41;6.70;99.90
1978;DHT22;989;53.016;8.346;2023-01-09T05:38:07;6.70;99.90
1978;DHT22;989;53.016;8.346;2023-01-09T05:40:32;6.70;99.90
1978;DHT22;989;53.016;8.346;2023-01-09T05:42:58;6.70;99.90
1978;DHT22;989;53.016;8.346;2023-01-09T05:45:23;6.60;99.90
1978;DHT22;989;53.016;8.346;2023-01-09T05:47:51;6.50;99.90
1978;DHT22;989;53.016;8.346;2023-01-09T05:50:17;6.50;99.90
1978;DHT22;989;53.016;8.346;2023-01-09T05:52:43;6.50;99.90
1978;DHT22;989;53.016;8.346;2023-01-09T05:55:10;6.50;99.90
1978;DHT22;989;53.016;8.346;2023-01-09T05:57:36;6.40;99.90
1978;DHT22;989;53.016;8.346;2023-01-09T06:00:03;6.40;99.90
1978;DHT22;989;53.016;8.346;2023-01-09T06:02:29;6.50;99.90
1978;DHT22;989;53.016;8.346;2023-01-09T06:04:55;6.50;99.90
1978;DHT22;989;53.016;8.346;2023-01-09T06:07:21;6.50;99.90
1978;DHT22;989;53.016;8.346;2023-01-09T06:09:46;6.50;99.90
1978;DHT22;989;53.016;8.346;2023-01-09T06:12:12;6.50;99.90
1978;DHT22;989;53.016;8.346;2023-01-09T06:14:37;6.40;99.90
1978;DHT22;989;53.016;8.346;2023-01-09T06:17:03;6.30;99.90
1978;DHT22;989;53.016;8.346;2023-01-09T06:19:29;6.30;99.90
1978;DHT22;989;53.016;8.346;2023-01-09T06:21:54;6.40;99.90
1978;DHT22;989;53.016;8.346;2023-01-09T06:24:20;6.30;99.90
1978;DHT22;989;53.016;8.346;2023-01-09T06:26:46;6.30;99.90
1978;DHT22;989;53.016;8.346;2023-01-09T06:29:11;6.40;99.90
1978;DHT22;989;53.016;8.346;2023-01-09T06:31:37;6.30;99.90
1978;DHT22;989;53.016;8.346;2023-01-09T06:34:02;6.30;99.90
1978;DHT22;989;53.016;8.346;2023-01-09T06:36:28;6.30;99.90
1978;DHT22;989;53.016;8.346;2023-01-09T06:38:54;6.20;99.90
1978;DHT22;989;53.016;8.346;2023-01-09T06:41:19;6.10;99.90
1978;DHT22;989;53.016;8.346;2023-01-09T06:43:45;6.10;99.90
1978;DHT22;989;53.016;8.346;2023-01-09T06:46:10;6.00;99.90
1978;DHT22;989;53.016;8.346;2023-01-09T06:48:36;6.00;99.90
1978;DHT22;989;53.016;8.346;2023-01-09T06:51:02;5.90;99.90
1978;DHT22;989;53.016;8.346;2023-01-09T06:53:28;5.90;99.90
1978;DHT22;989;53.016;8.346;2023-01-09T06:55:53;5.90;99.90
1978;DHT22;989;53.016;8.346;2023-01-09T06:58:19;5.80;99.90
1978;DHT22;989;53.016;8.346;2023-01-09T07:00:45;5.80;99.90
1978;DHT22;989;53.016;8.346;2023-01-09T07:03:10;5.70;99.90
1978;DHT22;989;53.016;8.346;2023-01-09T07:05:41;5.60;99.90
1978;DHT22;989;53.016;8.346;2023-01-09T07:08:07;5.60;99.90
1978;DHT22;989;53.016;8.346;2023-01-09T07:10:34;5.60;99.90
1978;DHT22;989;53.016;8.346;2023-01-09T07:12:59;5.60;99.90
1978;DHT22;989;53.016;8.346;2023-01-09T07:15:25;5.70;99.90
1978;DHT22;989;53.016;8.346;2023-01-09T07:17:51;5.80;99.90
1978;DHT22;989;53.016;8.346;2023-01-09T07:20:18;6.10;99.90
1978;DHT22;989;53.016;8.346;2023-01-09T07:22:44;6.30;99.90
1978;DHT22;989;53.016;8.346;2023-01-09T07:25:11;6.40;99.90
1978;DHT22;989;53.016;8.346;2023-01-09T07:27:36;6.50;99.90
1978;DHT22;989;53.016;8.346;2023-01-09T07:30:03;6.50;99.90
1978;DHT22;989;53.016;8.346;2023-01-09T07:32:30;6.50;99.90
1978;DHT22;989;53.016;8.346;2023-01-09T07:34:57;6.50;99.90
1978;DHT22;989;53.016;8.346;2023-01-09T07:37:23;6.50;99.90
1978;DHT22;989;53.016;8.346;2023-01-09T07:39:49;6.50;99.90
1978;DHT22;989;53.016;8.346;2023-01-09T07:42:15;6.50;99.90
1978;DHT22;989;53.016;8.346;2023-01-09T07:44:41;6.60;99.90
1978;DHT22;989;53.016;8.346;2023-01-09T07:47:06;6.60;99.90
1978;DHT22;989;53.016;8.346;2023-01-09T07:49:32;6.60;99.90
1978;DHT22;989;53.016;8.346;2023-01-09T07:51:58;6.60;99.90
1978;DHT22;989;53.016;8.346;2023-01-09T07:54:23;6.60;99.90
1978;DHT22;989;53.016;8.346;2023-01-09T07:56:49;6.50;99.90
1978;DHT22;989;53.016;8.346;2023-01-09T07:59:15;6.60;99.90
1978;DHT22;989;53.016;8.346;2023-01-09T08:01:40;6.70;99.90
1978;DHT22;989;53.016;8.346;2023-01-09T08:04:06;6.80;99.90
1978;DHT22;989;53.016;8.346;2023-01-09T08:06:32;6.80;99.90
1978;DHT22;989;53.016;8.346;2023-01-09T08:08:58;6.80;99.90
1978;DHT22;989;53.016;8.346;2023-01-09T08:11:24;6.80;99.90
1978;DHT22;989;53.016;8.346;2023-01-09T08:13:50;6.70;99.90
1978;DHT22;989;53.016;8.346;2023-01-09T08:16:16;6.70;99.90
1978;DHT22;989;53.016;8.346;2023-01-09T08:18:42;6.60;99.90
1978;DHT22;989;53.016;8.346;2023-01-09T08:21:08;6.60;99.90
1978;DHT22;989;53.016;8.346;2023-01-09T08:23:36;6.60;99.90
1978;DHT22;989;53.016;8.346;2023-01-09T08:26:02;6.60;99.90
1978;DHT22;989;53.016;8.346;2023-01-09T08:28:28;6.60;99.90
1978;DHT22;989;53.016;8.346;2023-01-09T08:30:54;6.50;99.90
1978;DHT22;989;53.016;8.346;2023-01-09T08:33:19;6.50;99.90
1978;DHT22;989;53.016;8.346;2023-01-09T08:35:45;6.50;99.90
1978;DHT22;989;53.016;8.346;2023-01-09T08:38:11;6.50;99.90
1978;DHT22;989;53.016;8.346;2023-01-09T08:40:36;6.50;99.90
1978;DHT22;989;53.016;8.346;2023-01-09T08:43:02;6.60;99.90
1978;DHT22;989;53.016;8.346;2023-01-09T08:45:46;6.60;99.90
1978;DHT22;989;53.016;8.346;2023-01-09T08:48:44;6.60;99.90
1978;DHT22;989;53.016;8.346;2023-01-09T08:51:10;6.60;99.90
1978;DHT22;989;53.016;8.346;2023-01-09T08:53:36;6.70;99.90
1978;DHT22;989;53.016;8.346;2023-01-09T08:56:03;6.60;99.90
1978;DHT22;989;53.016;8.346;2023-01-09T08:58:29;6.70;99.90
1978;DHT22;989;53.016;8.346;2023-01-09T09:00:55;6.90;99.90
1978;DHT22;989;53.016;8.346;2023-01-09T09:03:21;7.00;99.90
1978;DHT22;989;53.016;8.346;2023-01-09T09:05:46;7.00;99.90
1978;DHT22;989;53.016;8.346;2023-01-09T09:08:12;7.00;99.90
1978;DHT22;989;53.016;8.346;2023-01-09T09:10:38;7.10;99.90
1978;DHT22;989;53.016;8.346;2023-01-09T09:13:03;7.20;99.90
1978;DHT22;989;53.016;8.346;2023-01-09T09:15:29;7.20;99.90
1978;DHT22;989;53.016;8.346;2023-01-09T09:17:57;7.30;99.90
1978;DHT22;989;53.016;8.346;2023-01-09T09:20:26;7.30;99.90
1978;DHT22;989;53.016;8.346;2023-01-09T09:22:53;7.40;99.90
1978;DHT22;989;53.016;8.346;2023-01-09T09:25:19;7.40;99.90
1978;DHT22;989;53.016;8.346;2023-01-09T09:27:45;7.40;99.90
1978;DHT22;989;53.016;8.346;2023-01-09T09:30:15;7.50;99.90
1978;DHT22;989;53.016;8.346;2023-01-09T09:32:42;7.60;99.90
1978;DHT22;989;53.016;8.346;2023-01-09T09:35:09;7.70;99.90
1978;DHT22;989;53.016;8.346;2023-01-09T09:37:35;7.70;99.90
1978;DHT22;989;53.016;8.346;2023-01-09T09:40:00;7.80;99.90
1978;DHT22;989;53.016;8.346;2023-01-09T09:42:33;7.90;99.90
1978;DHT22;989;53.016;8.346;2023-01-09T09:45:42;8.00;99.90
1978;DHT22;989;53.016;8.346;2023-01-09T09:48:38;8.20;99.90
1978;DHT22;989;53.016;8.346;2023-01-09T09:54:21;8.40;99.90
1978;DHT22;989;53.016;8.346;2023-01-09T09:57:02;8.40;99.90
1978;DHT22;989;53.016;8.346;2023-01-09T09:59:31;8.50;99.90
1978;DHT22;989;53.016;8.346;2023-01-09T10:02:23;8.60;99.90
1978;DHT22;989;53.016;8.346;2023-01-09T10:05:03;8.60;99.90
1978;DHT22;989;53.016;8.346;2023-01-09T10:07:37;8.60;99.90
1978;DHT22;989;53.016;8.346;2023-01-09T10:10:33;8.60;99.90
1978;DHT22;989;53.016;8.346;2023-01-09T10:13:02;8.60;99.90
1978;DHT22;989;53.016;8.346;2023-01-09T10:16:07;8.60;99.90
1978;DHT22;989;53.016;8.346;2023-01-09T10:22:09;8.80;99.90
1978;DHT22;989;53.016;8.346;2023-01-09T10:33:48;8.70;99.90
1978;DHT22;989;53.016;8.346;2023-01-09T10:45:25;8.90;99.90
1978;DHT22;989;53.016;8.346;2023-01-09T10:48:00;8.80;99.90
1978;DHT22;989;53.016;8.346;2023-01-09T10:50:33;8.90;99.90
1978;DHT22;989;53.016;8.346;2023-01-09T10:53:08;8.90;99.90
1978;DHT22;989;53.016;8.346;2023-01-09T10:55:44;8.80;99.90
1978;DHT22;989;53.016;8.346;2023-01-09T10:58:17;8.80;99.90
1978;DHT22;989;53.016;8.346;2023-01-09T11:00:44;8.80;99.90
1978;DHT22;989;53.016;8.346;2023-01-09T11:03:21;8.70;99.90
1978;DHT22;989;53.016;8.346;2023-01-09T11:05:52;8.70;99.90
1978;DHT22;989;53.016;8.346;2023-01-09T11:08:30;8.70;99.90
1978;DHT22;989;53.016;8.346;2023-01-09T11:11:01;8.60;99.90
1978;DHT22;989;53.016;8.346;2023-01-09T11:13:29;8.60;99.90
1978;DHT22;989;53.016;8.346;2023-01-09T11:16:06;8.60;99.90
1978;DHT22;989;53.016;8.346;2023-01-09T11:18:38;8.50;99.90
1978;DHT22;989;53.016;8.346;2023-01-09T11:21:34;8.40;99.90
1978;DHT22;989;53.016;8.346;2023-01-09T11:26:43;8.40;99.90
1978;DHT22;989;53.016;8.346;2023-01-09T11:29:12;8.30;99.90
1978;DHT22;989;53.016;8.346;2023-01-09T11:31:40;8.40;99.90
1978;DHT22;989;53.016;8.346;2023-01-09T11:34:15;8.40;99.90
1978;DHT22;989;53.016;8.346;2023-01-09T11:36:42;8.40;99.90
1978;DHT22;989;53.016;8.346;2023-01-09T11:39:20;8.40;99.90
1978;DHT22;989;53.016;8.346;2023-01-09T11:41:55;8.40;99.90
1978;DHT22;989;53.016;8.346;2023-01-09T11:44:22;8.40;99.90
1978;DHT22;989;53.016;8.346;2023-01-09T11:46:48;8.30;99.90
1978;DHT22;989;53.016;8.346;2023-01-09T11:51:40;8.30;99.90
1978;DHT22;989;53.016;8.346;2023-01-09T11:56:51;8.30;99.90
1978;DHT22;989;53.016;8.346;2023-01-09T11:59:24;8.30;99.90
1978;DHT22;989;53.016;8.346;2023-01-09T12:04:57;8.40;99.90
1978;DHT22;989;53.016;8.346;2023-01-09T12:07:49;8.40;99.90
1978;DHT22;989;53.016;8.346;2023-01-09T12:20:36;8.60;99.90
1978;DHT22;989;53.016;8.346;2023-01-09T12:23:48;8.70;99.90
1978;DHT22;989;53.016;8.346;2023-01-09T12:26:30;8.60;99.90
1978;DHT22;989;53.016;8.346;2023-01-09T12:43:47;8.40;99.90
1978;DHT22;989;53.016;8.346;2023-01-09T12:46:23;8.30;99.90
1978;DHT22;989;53.016;8.346;2023-01-09T12:49:21;8.40;99.90
1978;DHT22;989;53.016;8.346;2023-01-09T12:51:58;8.40;99.90
1978;DHT22;989;53.016;8.346;2023-01-09T12:54:48;8.40;99.90
1978;DHT22;989;53.016;8.346;2023-01-09T12:57:29;8.30;99.90
1978;DHT22;989;53.016;8.346;2023-01-09T12:59:59;8.30;99.90
1978;DHT22;989;53.016;8.346;2023-01-09T13:02:36;8.20;99.90
1978;DHT22;989;53.016;8.346;2023-01-09T13:05:14;8.20;99.90
1978;DHT22;989;53.016;8.346;2023-01-09T13:07:45;8.20;99.90
1978;DHT22;989;53.016;8.346;2023-01-09T13:10:29;8.10;99.90
1978;DHT22;989;53.016;8.346;2023-01-09T13:12:58;8.20;99.90
1978;DHT22;989;53.016;8.346;2023-01-09T13:15:53;8.10;99.90
1978;DHT22;989;53.016;8.346;2023-01-09T13:18:28;8.10;99.90
1978;DHT22;989;53.016;8.346;2023-01-09T13:21:13;8.20;99.90
1978;DHT22;989;53.016;8.346;2023-01-09T13:26:35;8.20;99.90
1978;DHT22;989;53.016;8.346;2023-01-09T13:29:28;8.20;99.90
1978;DHT22;989;53.016;8.346;2023-01-09T13:35:12;8.20;99.90
1978;DHT22;989;53.016;8.346;2023-01-09T13:37:38;8.20;99.90
1978;DHT22;989;53.016;8.346;2023-01-09T13:40:06;8.10;99.90
1978;DHT22;989;53.016;8.346;2023-01-09T13:43:00;8.20;99.90
1978;DHT22;989;53.016;8.346;2023-01-09T13:45:30;8.20;99.90
1978;DHT22;989;53.016;8.346;2023-01-09T13:50:45;8.30;99.90
1978;DHT22;989;53.016;8.346;2023-01-09T13:58:25;8.40;99.90
1978;DHT22;989;53.016;8.346;2023-01-09T14:00:54;8.40;99.90
1978;DHT22;989;53.016;8.346;2023-01-09T14:03:35;8.50;99.90
1978;DHT22;989;53.016;8.346;2023-01-09T14:06:08;8.40;99.90
1978;DHT22;989;53.016;8.346;2023-01-09T14:08:36;8.40;99.90
1978;DHT22;989;53.016;8.346;2023-01-09T14:11:03;8.30;99.90
1978;DHT22;989;53.016;8.346;2023-01-09T14:13:32;8.20;99.90
1978;DHT22;989;53.016;8.346;2023-01-09T14:16:07;8.30;99.90
1978;DHT22;989;53.016;8.346;2023-01-09T14:19:00;8.30;99.90
1978;DHT22;989;53.016;8.346;2023-01-09T14:21:48;8.20;99.90
1978;DHT22;989;53.016;8.346;2023-01-09T14:24:26;8.30;99.90
1978;DHT22;989;53.016;8.346;2023-01-09T14:26:59;8.20;99.90
1978;DHT22;989;53.016;8.346;2023-01-09T14:37:36;8.30;99.90
1978;DHT22;989;53.016;8.346;2023-01-09T14:40:05;8.30;99.90
1978;DHT22;989;53.016;8.346;2023-01-09T14:42:33;8.30;99.90
1978;DHT22;989;53.016;8.346;2023-01-09T14:45:22;8.30;99.90
1978;DHT22;989;53.016;8.346;2023-01-09T14:48:03;8.30;99.90
1978;DHT22;989;53.016;8.346;2023-01-09T14:50:36;8.20;99.90
1978;DHT22;989;53.016;8.346;2023-01-09T14:53:25;8.20;99.90
1978;DHT22;989;53.016;8.346;2023-01-09T14:55:57;8.20;99.90
1978;DHT22;989;53.016;8.346;2023-01-09T14:58:42;8.20;99.90
1978;DHT22;989;53.016;8.346;2023-01-09T15:01:15;8.30;99.90
1978;DHT22;989;53.016;8.346;2023-01-09T15:03:53;8.20;99.90
1978;DHT22;989;53.016;8.346;2023-01-09T15:06:32;8.10;99.90
1978;DHT22;989;53.016;8.346;2023-01-09T15:09:05;8.10;99.90
1978;DHT22;989;53.016;8.346;2023-01-09T15:11:35;8.10;99.90
1978;DHT22;989;53.016;8.346;2023-01-09T15:14:01;8.10;99.90
1978;DHT22;989;53.016;8.346;2023-01-09T15:16:28;8.10;99.90
1978;DHT22;989;53.016;8.346;2023-01-09T15:19:05;8.10;99.90
1978;DHT22;989;53.016;8.346;2023-01-09T15:21:32;8.10;99.90
1978;DHT22;989;53.016;8.346;2023-01-09T15:24:11;8.10;99.90
1978;DHT22;989;53.016;8.346;2023-01-09T15:26:41;8.20;99.90
1978;DHT22;989;53.016;8.346;2023-01-09T15:29:15;8.10;99.90
1978;DHT22;989;53.016;8.346;2023-01-09T15:31:43;8.20;99.90
1978;DHT22;989;53.016;8.346;2023-01-09T15:34:17;8.10;99.90
1978;DHT22;989;53.016;8.346;2023-01-09T15:36:45;8.10;99.90
1978;DHT22;989;53.016;8.346;2023-01-09T15:39:24;8.10;99.90
1978;DHT22;989;53.016;8.346;2023-01-09T15:41:52;8.10;99.90
1978;DHT22;989;53.016;8.346;2023-01-09T15:44:40;8.00;99.90
1978;DHT22;989;53.016;8.346;2023-01-09T15:47:13;8.10;99.90
1978;DHT22;989;53.016;8.346;2023-01-09T15:49:43;8.10;99.90
1978;DHT22;989;53.016;8.346;2023-01-09T15:52:12;8.10;99.90
1978;DHT22;989;53.016;8.346;2023-01-09T15:54:40;8.20;99.90
1978;DHT22;989;53.016;8.346;2023-01-09T15:57:27;8.10;99.90
1978;DHT22;989;53.016;8.346;2023-01-09T16:00:30;8.20;99.90
1978;DHT22;989;53.016;8.346;2023-01-09T16:03:00;8.10;99.90
1978;DHT22;989;53.016;8.346;2023-01-09T16:05:41;8.10;99.90
1978;DHT22;989;53.016;8.346;2023-01-09T16:08:26;8.20;99.90
1978;DHT22;989;53.016;8.346;2023-01-09T16:11:05;8.10;99.90
1978;DHT22;989;53.016;8.346;2023-01-09T16:13:38;8.10;99.90
1978;DHT22;989;53.016;8.346;2023-01-09T16:16:08;8.10;99.90
1978;DHT22;989;53.016;8.346;2023-01-09T16:18:36;8.10;99.90
1978;DHT22;989;53.016;8.346;2023-01-09T16:21:29;8.10;99.90
1978;DHT22;989;53.016;8.346;2023-01-09T16:24:23;8.10;99.90
1978;DHT22;989;53.016;8.346;2023-01-09T16:26:56;8.10;99.90
1978;DHT22;989;53.016;8.346;2023-01-09T16:29:44;8.10;99.90
1978;DHT22;989;53.016;8.346;2023-01-09T16:32:20;8.10;99.90
1978;DHT22;989;53.016;8.346;2023-01-09T16:34:57;8.10;99.90
1978;DHT22;989;53.016;8.346;2023-01-09T16:37:31;8.10;99.90
1978;DHT22;989;53.016;8.346;2023-01-09T16:40:23;8.10;99.90
1978;DHT22;989;53.016;8.346;2023-01-09T16:42:57;8.10;99.90
1978;DHT22;989;53.016;8.346;2023-01-09T16:45:37;8.10;99.90
1978;DHT22;989;53.016;8.346;2023-01-09T16:48:11;8.10;99.90
1978;DHT22;989;53.016;8.346;2023-01-09T16:50:38;8.10;99.90
1978;DHT22;989;53.016;8.346;2023-01-09T16:53:15;8.10;99.90
1978;DHT22;989;53.016;8.346;2023-01-09T16:55:48;8.10;99.90
1978;DHT22;989;53.016;8.346;2023-01-09T16:58:21;8.10;99.90
1978;DHT22;989;53.016;8.346;2023-01-09T17:00:49;8.10;99.90
1978;DHT22;989;53.016;8.346;2023-01-09T17:03:15;8.10;99.90
1978;DHT22;989;53.016;8.346;2023-01-09T17:05:41;8.10;99.90
1978;DHT22;989;53.016;8.346;2023-01-09T17:08:28;8.10;99.90
1978;DHT22;989;53.016;8.346;2023-01-09T17:10:56;8.10;99.90
1978;DHT22;989;53.016;8.346;2023-01-09T17:13:23;8.10;99.90
1978;DHT22;989;53.016;8.346;2023-01-09T17:15:50;8.10;99.90
1978;DHT22;989;53.016;8.346;2023-01-09T17:18:23;8.10;99.90
1978;DHT22;989;53.016;8.346;2023-01-09T17:20:52;8.10;99.90
1978;DHT22;989;53.016;8.346;2023-01-09T17:23:19;8.10;99.90
1978;DHT22;989;53.016;8.346;2023-01-09T17:25:48;8.00;99.90
1978;DHT22;989;53.016;8.346;2023-01-09T17:28:33;8.00;99.90
1978;DHT22;989;53.016;8.346;2023-01-09T17:31:05;8.10;99.90
1978;DHT22;989;53.016;8.346;2023-01-09T17:33:33;8.10;99.90
1978;DHT22;989;53.016;8.346;2023-01-09T17:36:01;8.00;99.90
1978;DHT22;989;53.016;8.346;2023-01-09T17:38:28;8.00;99.90
1978;DHT22;989;53.016;8.346;2023-01-09T17:40:53;8.10;99.90
1978;DHT22;989;53.016;8.346;2023-01-09T17:43:22;8.10;99.90
1978;DHT22;989;53.016;8.346;2023-01-09T17:45:48;8.10;99.90
1978;DHT22;989;53.016;8.346;2023-01-09T17:48:19;8.10;99.90
1978;DHT22;989;53.016;8.346;2023-01-09T17:50:47;8.00;99.90
1978;DHT22;989;53.016;8.346;2023-01-09T17:53:13;8.00;99.90
1978;DHT22;989;53.016;8.346;2023-01-09T17:55:40;8.00;99.90
1978;DHT22;989;53.016;8.346;2023-01-09T17:58:13;8.00;99.90
1978;DHT22;989;53.016;8.346;2023-01-09T18:00:48;8.00;99.90
1978;DHT22;989;53.016;8.346;2023-01-09T18:03:14;8.00;99.90
1978;DHT22;989;53.016;8.346;2023-01-09T18:05:39;8.00;99.90
1978;DHT22;989;53.016;8.346;2023-01-09T18:08:05;8.00;99.90
1978;DHT22;989;53.016;8.346;2023-01-09T18:10:33;8.00;99.90
1978;DHT22;989;53.016;8.346;2023-01-09T18:13:00;8.00;99.90
1978;DHT22;989;53.016;8.346;2023-01-09T18:15:26;8.00;99.90
1978;DHT22;989;53.016;8.346;2023-01-09T18:17:51;7.90;99.90
1978;DHT22;989;53.016;8.346;2023-01-09T18:20:17;7.90;99.90
1978;DHT22;989;53.016;8.346;2023-01-09T18:22:43;7.90;99.90
1978;DHT22;989;53.016;8.346;2023-01-09T18:25:09;7.90;99.90
1978;DHT22;989;53.016;8.346;2023-01-09T18:27:36;8.00;99.90
1978;DHT22;989;53.016;8.346;2023-01-09T18:30:04;7.90;99.90
1978;DHT22;989;53.016;8.346;2023-01-09T18:32:31;8.00;99.90
1978;DHT22;989;53.016;8.346;2023-01-09T18:34:57;8.00;99.90
1978;DHT22;989;53.016;8.346;2023-01-09T18:37:22;8.00;99.90
1978;DHT22;989;53.016;8.346;2023-01-09T18:39:48;8.00;99.90
1978;DHT22;989;53.016;8.346;2023-01-09T18:42:14;7.90;99.90
1978;DHT22;989;53.016;8.346;2023-01-09T18:44:41;7.90;99.90
1978;DHT22;989;53.016;8.346;2023-01-09T18:47:07;8.00;99.90
1978;DHT22;989;53.016;8.346;2023-01-09T18:49:33;8.00;99.90